createdAt,value
2022-09-03T00:00:47.525Z,34.20
2022-09-03T00:03:33.375Z,31.40
2022-09-03T00:06:19.338Z,35.75
2022-09-03T00:09:18.181Z,35.03
2022-09-03T00:11:51.026Z,34.17
2022-09-03T00:14:23.709Z,34.10
2022-09-03T00:16:59.307Z,33.50
2022-09-03T00:19:29.253Z,32.03
2022-09-03T00:22:11.002Z,38.20
2022-09-03T00:24:39.632Z,35.15
2022-09-03T00:27:08.243Z,34.30
2022-09-03T00:29:39.989Z,38.03
2022-09-03T00:32:14.019Z,38.47
2022-09-03T00:34:43.447Z,36.15
2022-09-03T00:37:15.326Z,38.15
2022-09-03T00:39:43.127Z,36.67
2022-09-03T00:42:19.118Z,36.88
2022-09-03T00:44:58.817Z,37.33
2022-09-03T00:47:47.689Z,38.78
2022-09-03T00:50:33.221Z,36.72
2022-09-03T00:53:07.255Z,37.67
2022-09-03T00:55:47.561Z,37.17
2022-09-03T00:58:23.797Z,36.60
2022-09-03T01:00:50.742Z,33.47
2022-09-03T01:03:36.270Z,37.25
2022-09-03T01:06:22.763Z,36.80
2022-09-03T01:08:53.262Z,36.13
2022-09-03T01:11:40.375Z,41.00
2022-09-03T01:14:16.298Z,43.00
2022-09-03T01:16:57.339Z,47.78
2022-09-03T01:19:45.879Z,48.25
2022-09-03T01:22:30.959Z,45.00
2022-09-03T01:25:22.766Z,49.08
2022-09-03T01:28:19.486Z,40.92
2022-09-03T01:31:11.845Z,38.30
2022-09-03T01:33:49.789Z,38.70
2022-09-03T01:36:23.377Z,35.53
2022-09-03T01:39:16.220Z,35.58
2022-09-03T01:42:13.102Z,33.15
2022-09-03T01:44:46.060Z,35.25
2022-09-03T01:47:47.955Z,36.47
2022-09-03T01:50:39.170Z,38.30
2022-09-03T01:53:44.085Z,39.05
2022-09-03T01:56:17.366Z,38.25
2022-09-03T01:58:59.760Z,40.53
2022-09-03T02:03:56.834Z,39.22
2022-09-03T02:06:23.742Z,38.20
2022-09-03T02:08:50.563Z,43.97
2022-09-03T02:11:17.455Z,41.55
2022-09-03T02:13:52.649Z,41.97
2022-09-03T02:16:21.858Z,40.83
2022-09-03T02:18:51.684Z,42.47
2022-09-03T02:21:20.270Z,42.78
2022-09-03T02:23:47.410Z,42.88
2022-09-03T02:26:16.229Z,45.85
2022-09-03T02:28:43.194Z,40.45
2022-09-03T02:31:10.137Z,43.80
2022-09-03T02:33:41.171Z,41.85
2022-09-03T02:36:10.306Z,41.95
2022-09-03T02:38:37.223Z,41.13
2022-09-03T02:41:04.282Z,43.63
2022-09-03T02:43:42.667Z,43.40
2022-09-03T02:46:13.047Z,42.42
2022-09-03T02:48:39.991Z,43.92
2022-09-03T02:51:13.944Z,41.97
2022-09-03T02:53:42.346Z,40.33
2022-09-03T02:56:09.187Z,39.40
2022-09-03T02:58:36.106Z,44.10
2022-09-03T03:01:03.459Z,42.75
2022-09-03T03:03:30.542Z,40.97
2022-09-03T03:05:59.002Z,43.42
2022-09-03T03:08:27.697Z,42.53
2022-09-03T03:10:58.880Z,40.22
2022-09-03T03:13:26.740Z,41.78
2022-09-03T03:15:59.833Z,41.80
2022-09-03T03:18:26.777Z,38.40
2022-09-03T03:20:54.521Z,44.38
2022-09-03T03:23:21.553Z,47.85
2022-09-03T03:25:48.442Z,47.33
2022-09-03T03:28:15.470Z,42.50
2022-09-03T03:30:43.084Z,45.42
2022-09-03T03:33:10.324Z,42.22
2022-09-03T03:35:37.232Z,42.53
2022-09-03T03:38:04.719Z,42.33
2022-09-03T03:40:31.586Z,42.10
2022-09-03T03:42:58.675Z,44.10
2022-09-03T03:45:25.708Z,40.58
2022-09-03T03:47:52.732Z,42.83
2022-09-03T03:50:19.906Z,43.63
2022-09-03T03:52:48.181Z,43.15
2022-09-03T03:55:15.866Z,42.58
2022-09-03T03:57:43.006Z,44.90
2022-09-03T04:00:13.317Z,46.83
2022-09-03T04:02:42.970Z,47.42
2022-09-03T04:05:10.485Z,48.45
2022-09-03T04:07:38.451Z,42.58
2022-09-03T04:10:05.942Z,45.85
2022-09-03T04:12:33.241Z,47.33
2022-09-03T04:15:00.106Z,52.42
2022-09-03T04:17:28.162Z,49.25
2022-09-03T04:19:54.991Z,51.92
2022-09-03T04:22:21.906Z,54.72
2022-09-03T04:24:48.715Z,52.53
2022-09-03T04:27:15.569Z,59.10
2022-09-03T04:29:42.393Z,57.40
2022-09-03T04:32:27.571Z,57.42
2022-09-03T04:34:54.485Z,62.95
2022-09-03T04:37:21.365Z,58.70
2022-09-03T04:39:48.317Z,60.53
2022-09-03T04:42:15.322Z,61.65
2022-09-03T04:44:42.212Z,62.28
2022-09-03T04:47:09.133Z,63.22
2022-09-03T04:49:36.002Z,68.13
2022-09-03T04:52:03.577Z,64.68
2022-09-03T04:54:30.527Z,56.20
2022-09-03T04:56:57.471Z,59.83
2022-09-03T04:59:24.413Z,60.42
2022-09-03T05:01:52.736Z,62.15
2022-09-03T05:04:19.919Z,58.70
2022-09-03T05:06:46.806Z,57.13
2022-09-03T05:09:13.726Z,56.97
2022-09-03T05:11:40.611Z,58.28
2022-09-03T05:14:11.724Z,66.07
2022-09-03T05:16:38.758Z,66.07
2022-09-03T05:19:08.423Z,59.92
2022-09-03T05:21:36.236Z,59.10
2022-09-03T05:24:03.807Z,60.33
2022-09-03T05:26:32.754Z,63.38
2022-09-03T05:29:00.946Z,61.65
2022-09-03T05:31:30.279Z,60.70
2022-09-03T05:33:59.738Z,62.75
2022-09-03T05:36:28.441Z,59.92
2022-09-03T05:38:55.869Z,63.58
2022-09-03T05:41:23.048Z,59.25
2022-09-03T05:43:59.888Z,63.75
2022-09-03T05:46:33.921Z,59.38
2022-09-03T05:49:02.107Z,59.80
2022-09-03T05:51:29.415Z,58.90
2022-09-03T05:53:56.382Z,56.60
2022-09-03T05:56:25.074Z,60.95
2022-09-03T05:58:53.494Z,59.47
2022-09-03T06:01:31.228Z,60.50
2022-09-03T06:03:59.497Z,61.40
2022-09-03T06:06:27.284Z,63.78
2022-09-03T06:08:55.144Z,60.40
2022-09-03T06:11:24.089Z,63.15
2022-09-03T06:13:50.960Z,62.78
2022-09-03T06:16:17.925Z,58.35
2022-09-03T06:18:54.088Z,60.33
2022-09-03T06:21:21.019Z,58.53
2022-09-03T06:23:51.940Z,59.63
2022-09-03T06:26:19.735Z,60.88
2022-09-03T06:28:48.434Z,58.97
2022-09-03T06:31:17.022Z,67.63
2022-09-03T06:33:44.061Z,67.78
2022-09-03T06:36:13.453Z,64.88
2022-09-03T06:38:40.505Z,63.55
2022-09-03T06:41:12.571Z,60.83
2022-09-03T06:43:41.152Z,61.40
2022-09-03T06:46:10.377Z,60.63
2022-09-03T06:48:38.001Z,60.85
2022-09-03T06:51:18.394Z,66.72
2022-09-03T06:53:47.403Z,60.92
2022-09-03T06:56:16.972Z,61.97
2022-09-03T06:58:45.649Z,63.95
2022-09-03T07:01:23.566Z,59.35
2022-09-03T07:03:55.949Z,63.60
2022-09-03T07:08:50.230Z,58.30
2022-09-03T07:11:19.743Z,61.92
2022-09-03T07:13:48.106Z,59.08
2022-09-03T07:16:19.938Z,59.53
2022-09-03T07:18:47.140Z,58.38
2022-09-03T07:21:24.921Z,56.83
2022-09-03T07:23:52.524Z,57.35
2022-09-03T07:26:23.774Z,53.90
2022-09-03T07:28:50.776Z,51.03
2022-09-03T07:31:22.695Z,54.15
2022-09-03T07:33:49.709Z,56.17
2022-09-03T07:36:17.177Z,49.72
2022-09-03T07:38:44.817Z,49.00
2022-09-03T07:41:12.582Z,50.50
2022-09-03T07:43:48.556Z,43.88
2022-09-03T07:46:23.652Z,40.80
2022-09-03T07:48:52.350Z,35.45
2022-09-03T07:51:20.235Z,37.67
2022-09-03T07:53:48.119Z,33.42
2022-09-03T07:56:15.753Z,27.50
2022-09-03T07:58:42.671Z,29.00
2022-09-03T08:01:11.138Z,27.67
2022-09-03T08:03:38.524Z,25.33
2022-09-03T08:06:06.899Z,24.95
2022-09-03T08:08:36.201Z,25.60
2022-09-03T08:11:10.190Z,21.95
2022-09-03T08:13:41.675Z,21.52
2022-09-03T08:16:09.312Z,15.45
2022-09-03T08:18:39.224Z,14.10
2022-09-03T08:21:10.385Z,13.15
2022-09-03T08:23:38.706Z,13.03
2022-09-03T08:26:06.294Z,12.73
2022-09-03T08:28:34.371Z,15.85
2022-09-03T08:31:15.224Z,13.07
2022-09-03T08:33:44.310Z,14.02
2022-09-03T08:36:16.982Z,15.00
2022-09-03T08:38:45.546Z,16.00
2022-09-03T08:41:12.375Z,17.08
2022-09-03T08:43:44.197Z,15.55
2022-09-03T08:46:11.130Z,16.30
2022-09-03T08:48:38.037Z,16.02
2022-09-03T08:51:05.044Z,15.52
2022-09-03T08:53:45.147Z,16.27
2022-09-03T08:56:14.571Z,16.10
2022-09-03T08:58:44.806Z,14.45
2022-09-03T09:01:17.756Z,14.23
2022-09-03T09:03:56.689Z,16.95
2022-09-03T09:06:34.134Z,17.23
2022-09-03T09:09:23.526Z,17.02
2022-09-03T09:12:16.074Z,15.25
2022-09-03T09:14:48.784Z,17.08
2022-09-03T09:17:24.863Z,17.15
2022-09-03T09:20:03.809Z,15.43
2022-09-03T09:22:35.390Z,15.63
2022-09-03T09:25:05.406Z,15.00
2022-09-03T09:27:32.713Z,15.80
2022-09-03T09:30:01.895Z,14.85
2022-09-03T09:32:30.683Z,14.23
2022-09-03T09:34:57.623Z,15.38
2022-09-03T09:37:24.637Z,12.73
2022-09-03T09:39:59.012Z,12.07
2022-09-03T09:42:26.013Z,13.82
2022-09-03T09:44:53.028Z,13.35
2022-09-03T09:47:24.584Z,11.65
2022-09-03T09:49:56.426Z,13.73
2022-09-03T09:54:56.817Z,14.48
2022-09-03T09:57:24.858Z,13.38
2022-09-03T10:00:09.392Z,11.45
2022-09-03T10:02:40.577Z,13.40
2022-09-03T10:05:39.645Z,13.82
2022-09-03T10:08:18.447Z,15.68
2022-09-03T10:10:49.836Z,14.88
2022-09-03T10:13:22.585Z,11.88
2022-09-03T10:16:04.930Z,11.10
2022-09-03T10:18:41.014Z,10.82
2022-09-03T10:21:26.679Z,10.50
2022-09-03T10:24:15.687Z,11.93
2022-09-03T10:26:44.700Z,9.35
2022-09-03T10:29:11.831Z,8.45
2022-09-03T10:31:51.974Z,7.97
2022-09-03T10:34:38.890Z,10.57
2022-09-03T10:37:33.205Z,8.18
2022-09-03T10:40:06.230Z,8.63
2022-09-03T10:43:05.378Z,9.13
2022-09-03T10:45:40.736Z,9.13
2022-09-03T10:48:29.681Z,9.68
2022-09-03T10:51:04.278Z,8.27
2022-09-03T10:54:05.170Z,8.68
2022-09-03T10:56:43.855Z,7.75
2022-09-03T10:59:17.162Z,7.70
2022-09-03T11:02:05.229Z,8.10
2022-09-03T11:04:54.477Z,8.45
2022-09-03T11:07:23.674Z,7.70
2022-09-03T11:09:55.347Z,8.63
2022-09-03T11:12:29.236Z,6.72
2022-09-03T11:15:16.017Z,8.02
2022-09-03T11:17:46.751Z,7.28
2022-09-03T11:20:26.346Z,8.10
2022-09-03T11:22:58.256Z,7.97
2022-09-03T11:28:26.019Z,6.88
2022-09-03T11:31:13.497Z,8.02
2022-09-03T11:34:06.594Z,7.95
2022-09-03T11:36:38.906Z,7.57
2022-09-03T11:39:24.173Z,8.57
2022-09-03T11:42:07.034Z,7.03
2022-09-03T11:44:47.949Z,8.20
2022-09-03T11:47:47.045Z,7.30
2022-09-03T11:50:21.044Z,6.82
2022-09-03T11:52:49.402Z,7.45
2022-09-03T11:55:38.419Z,6.78
2022-09-03T11:58:20.725Z,6.95
2022-09-03T12:00:47.641Z,7.38
2022-09-03T12:03:16.355Z,6.88
2022-09-03T12:05:53.818Z,7.18
2022-09-03T12:08:39.271Z,6.75
2022-09-03T12:11:36.610Z,8.15
2022-09-03T12:14:31.949Z,8.73
2022-09-03T12:17:12.916Z,6.85
2022-09-03T12:19:52.762Z,7.05
2022-09-03T12:22:22.799Z,7.13
2022-09-03T12:24:50.787Z,6.45
2022-09-03T12:27:25.180Z,8.57
2022-09-03T12:30:00.610Z,7.65
2022-09-03T12:32:32.275Z,7.70
2022-09-03T12:35:09.469Z,7.93
2022-09-03T12:40:29.181Z,8.18
2022-09-03T12:46:15.498Z,5.95
2022-09-03T12:51:57.453Z,7.03
2022-09-03T12:54:25.868Z,6.10
2022-09-03T12:56:56.550Z,6.30
2022-09-03T12:59:23.423Z,7.63
2022-09-03T13:01:52.519Z,6.15
2022-09-03T13:04:21.397Z,7.40
2022-09-03T13:06:50.302Z,6.43
2022-09-03T13:09:20.609Z,5.93
2022-09-03T13:11:47.459Z,7.18
2022-09-03T13:14:15.414Z,6.05
2022-09-03T13:16:45.489Z,7.25
2022-09-03T13:19:24.345Z,6.72
2022-09-03T13:22:12.331Z,6.43
2022-09-03T13:24:47.040Z,6.57
2022-09-03T13:27:25.476Z,6.35
2022-09-03T13:29:55.431Z,6.40
2022-09-03T13:32:31.234Z,6.70
2022-09-03T13:35:25.174Z,6.18
2022-09-03T13:37:58.110Z,6.88
2022-09-03T13:40:35.477Z,7.88
2022-09-03T13:43:42.481Z,7.38
2022-09-03T13:46:41.905Z,8.90
2022-09-03T13:50:12.817Z,6.70
2022-09-03T13:52:45.169Z,7.00
2022-09-03T13:55:35.154Z,6.85
2022-09-03T13:58:28.764Z,7.10
2022-09-03T14:00:58.790Z,7.15
2022-09-03T14:03:37.197Z,8.30
2022-09-03T14:06:20.454Z,6.95
2022-09-03T14:08:59.364Z,7.35
2022-09-03T14:11:35.337Z,8.57
2022-09-03T14:14:06.499Z,8.10
2022-09-03T14:16:56.828Z,8.02
2022-09-03T14:19:35.002Z,9.98
2022-09-03T14:22:05.738Z,7.95
2022-09-03T14:24:46.248Z,8.55
2022-09-03T14:27:13.157Z,8.63
2022-09-03T14:29:50.965Z,8.52
2022-09-03T14:32:42.411Z,8.05
2022-09-03T14:35:13.145Z,7.70
2022-09-03T14:37:43.187Z,7.07
2022-09-03T14:40:35.847Z,7.57
2022-09-03T14:43:10.702Z,7.07
2022-09-03T14:46:06.418Z,7.40
2022-09-03T14:48:45.518Z,8.15
2022-09-03T14:51:33.843Z,7.95
2022-09-03T14:54:07.888Z,7.20
2022-09-03T14:56:55.054Z,7.00
2022-09-03T14:59:44.440Z,8.00
2022-09-03T15:02:27.667Z,7.75
2022-09-03T15:05:12.150Z,8.00
2022-09-03T15:07:46.984Z,9.65
2022-09-03T15:10:42.930Z,9.25
2022-09-03T15:13:27.766Z,9.27
2022-09-03T15:16:23.113Z,7.32
2022-09-03T15:19:11.875Z,9.75
2022-09-03T15:22:17.842Z,7.93
2022-09-03T15:24:59.084Z,9.52
2022-09-03T15:27:54.125Z,7.95
2022-09-03T15:30:21.439Z,8.07
2022-09-03T15:32:57.486Z,11.25
2022-09-03T15:35:46.681Z,11.02
2022-09-03T15:38:28.896Z,10.95
2022-09-03T15:40:57.224Z,10.50
2022-09-03T15:43:31.766Z,9.13
2022-09-03T15:46:00.957Z,9.18
2022-09-03T15:48:37.374Z,11.27
2022-09-03T15:51:25.772Z,9.57
2022-09-03T15:54:12.606Z,10.77
2022-09-03T15:56:52.681Z,12.05
2022-09-03T15:59:25.397Z,11.70
2022-09-03T16:02:16.324Z,11.45
2022-09-03T16:05:06.066Z,10.90
2022-09-03T16:07:38.906Z,11.93
2022-09-03T16:10:24.725Z,9.40
2022-09-03T16:13:01.083Z,11.57
2022-09-03T16:15:40.767Z,9.15
2022-09-03T16:18:10.082Z,10.43
2022-09-03T16:20:43.111Z,12.75
2022-09-03T16:23:21.460Z,11.50
2022-09-03T16:25:49.699Z,9.90
2022-09-03T16:28:37.959Z,9.55
2022-09-03T16:31:14.004Z,11.20
2022-09-03T16:33:59.598Z,11.60
2022-09-03T16:36:49.758Z,9.85
2022-09-03T16:39:21.137Z,10.25
2022-09-03T16:42:12.894Z,10.10
2022-09-03T16:45:01.467Z,11.55
2022-09-03T16:47:48.004Z,10.25
2022-09-03T16:50:36.843Z,9.30
2022-09-03T16:53:37.178Z,8.07
2022-09-03T16:56:39.975Z,8.70
2022-09-03T16:59:06.820Z,10.77
2022-09-03T17:01:37.285Z,9.95
2022-09-03T17:04:22.759Z,12.73
2022-09-03T17:07:10.838Z,11.60
2022-09-03T17:10:01.416Z,11.60
2022-09-03T17:12:37.917Z,13.25
2022-09-03T17:15:17.215Z,9.00
2022-09-03T17:18:06.152Z,11.77
2022-09-03T17:20:54.932Z,11.85
2022-09-03T17:23:21.796Z,9.82
2022-09-03T17:25:53.633Z,11.50
2022-09-03T17:31:02.404Z,11.38
2022-09-03T17:33:40.094Z,14.52
2022-09-03T17:36:27.185Z,10.27
2022-09-03T17:39:06.275Z,11.27
2022-09-03T17:41:53.311Z,11.75
2022-09-03T17:44:29.031Z,13.52
2022-09-03T17:47:04.546Z,11.63
2022-09-03T17:50:08.756Z,12.52
2022-09-03T17:52:35.566Z,13.52
2022-09-03T17:55:28.146Z,11.82
2022-09-03T17:58:10.746Z,13.38
2022-09-03T18:01:01.258Z,12.40
2022-09-03T18:03:32.931Z,13.23
2022-09-03T18:06:04.461Z,16.70
2022-09-03T18:08:31.280Z,12.85
2022-09-03T18:11:10.314Z,13.27
2022-09-03T18:13:52.327Z,14.30
2022-09-03T18:16:26.203Z,14.15
2022-09-03T18:18:53.601Z,14.45
2022-09-03T18:21:42.909Z,14.30
2022-09-03T18:24:40.429Z,13.00
2022-09-03T18:27:58.832Z,16.17
2022-09-03T18:30:44.643Z,17.65
2022-09-03T18:33:32.081Z,13.95
2022-09-03T18:36:17.678Z,15.63
2022-09-03T18:39:03.142Z,13.73
2022-09-03T18:41:57.637Z,12.38
2022-09-03T18:45:20.435Z,12.50
2022-09-03T18:48:22.104Z,14.80
2022-09-03T18:51:07.538Z,14.75
2022-09-03T18:54:05.246Z,12.30
2022-09-03T18:56:55.052Z,13.98
2022-09-03T18:59:58.698Z,14.18
2022-09-03T19:02:53.515Z,12.32
2022-09-03T19:05:44.822Z,13.27
2022-09-03T19:08:33.763Z,13.68
2022-09-03T19:11:25.686Z,15.98
2022-09-03T19:14:10.975Z,13.90
2022-09-03T19:17:20.223Z,14.30
2022-09-03T19:20:41.054Z,14.57
2022-09-03T19:23:26.771Z,14.60
2022-09-03T19:26:12.203Z,12.45
2022-09-03T19:29:00.474Z,12.05
2022-09-03T19:32:10.460Z,12.38
2022-09-03T19:34:59.023Z,13.00
2022-09-03T19:37:56.109Z,14.15
2022-09-03T19:40:50.589Z,12.82
2022-09-03T19:43:42.092Z,13.70
2022-09-03T19:47:00.473Z,11.57
2022-09-03T19:50:01.472Z,13.13
2022-09-03T19:53:20.186Z,14.95
2022-09-03T19:56:13.341Z,12.40
2022-09-03T19:59:17.330Z,12.32
2022-09-03T20:02:03.085Z,13.68
2022-09-03T20:05:17.907Z,10.93
2022-09-03T20:08:04.790Z,12.68
2022-09-03T20:10:31.828Z,12.50
2022-09-03T20:13:22.739Z,11.52
2022-09-03T20:16:01.442Z,11.88
2022-09-03T20:18:53.035Z,12.65
2022-09-03T20:21:29.867Z,14.00
2022-09-03T20:24:25.904Z,12.50
2022-09-03T20:27:01.806Z,13.55
2022-09-03T20:29:59.011Z,12.65
2022-09-03T20:32:38.429Z,12.57
2022-09-03T20:35:30.951Z,13.70
2022-09-03T20:38:17.324Z,10.77
2022-09-03T20:41:03.212Z,12.75
2022-09-03T20:43:49.323Z,12.80
2022-09-03T20:46:45.598Z,12.57
2022-09-03T20:49:45.000Z,12.63
2022-09-03T20:52:45.733Z,16.00
2022-09-03T20:55:24.153Z,17.95
2022-09-03T20:58:06.161Z,14.10
2022-09-03T21:00:45.285Z,12.02
2022-09-03T21:03:16.157Z,12.55
2022-09-03T21:06:02.579Z,14.40
2022-09-03T21:08:48.123Z,16.02
2022-09-03T21:11:31.561Z,14.02
2022-09-03T21:14:23.285Z,13.25
2022-09-03T21:17:09.018Z,12.55
2022-09-03T21:19:50.639Z,15.35
2022-09-03T21:22:44.619Z,14.00
2022-09-03T21:25:17.933Z,12.05
2022-09-03T21:27:50.108Z,13.15
2022-09-03T21:30:18.167Z,13.88
2022-09-03T21:33:06.801Z,12.18
2022-09-03T21:35:36.319Z,13.45
2022-09-03T21:38:07.107Z,14.35
2022-09-03T21:40:36.390Z,13.65
2022-09-03T21:43:27.373Z,12.95
2022-09-03T21:46:21.242Z,14.87
2022-09-03T21:49:01.480Z,16.10
2022-09-03T21:51:52.610Z,14.85
2022-09-03T21:54:25.703Z,12.50
2022-09-03T21:57:22.236Z,15.32
2022-09-03T22:00:20.611Z,19.33
2022-09-03T22:02:48.783Z,21.95
2022-09-03T22:05:16.686Z,19.52
2022-09-03T22:07:58.931Z,16.60
2022-09-03T22:13:09.179Z,17.10
2022-09-03T22:15:39.405Z,17.23
2022-09-03T22:18:19.259Z,18.02
2022-09-03T22:20:52.727Z,16.52
2022-09-03T22:23:24.780Z,16.00
2022-09-03T22:26:03.236Z,17.83
2022-09-03T22:28:42.432Z,19.45
2022-09-03T22:31:45.219Z,15.38
2022-09-03T22:34:24.123Z,15.02
2022-09-03T22:37:00.746Z,16.27
2022-09-03T22:39:34.247Z,14.20
2022-09-03T22:42:36.822Z,14.60
2022-09-03T22:45:03.750Z,15.15
2022-09-03T22:48:06.454Z,12.75
2022-09-03T22:50:45.653Z,17.80
2022-09-03T22:53:37.166Z,15.93
2022-09-03T22:56:08.409Z,17.00
2022-09-03T22:58:56.602Z,22.03
2022-09-03T23:01:31.586Z,15.50
2022-09-03T23:04:22.231Z,14.60
2022-09-03T23:06:56.786Z,14.48
2022-09-03T23:09:26.246Z,15.77
2022-09-03T23:12:15.165Z,17.13
2022-09-03T23:14:51.172Z,15.77
2022-09-03T23:19:57.216Z,16.80
2022-09-03T23:22:46.240Z,16.45
2022-09-03T23:25:15.767Z,17.15
2022-09-03T23:27:46.546Z,16.98
2022-09-03T23:30:13.618Z,19.63
2022-09-03T23:32:40.588Z,18.88
2022-09-03T23:35:17.766Z,16.73
2022-09-03T23:38:05.409Z,21.48
2022-09-03T23:40:42.651Z,19.65
2022-09-03T23:43:37.394Z,16.05
2022-09-03T23:46:31.030Z,16.30
2022-09-03T23:49:23.766Z,15.68
2022-09-03T23:54:46.784Z,15.85
2022-09-03T23:57:29.287Z,18.27
